الصفحة الرئيسية
METAR-TAF:

METAR-TAF

مطار :

مطار الملك عبد العزيز الدولي

جدة, السعودية

دائرة عرض: 21-42N, خط طول: 039-11E, ارتفاع: 15 متر

مراقبة الطقس الحالي

تاريخ ووقت الإصدار 57 دقيقة قبل الساعة 18:00UTC
ريح 12 عقدة من الشمال
درجة الحرارة 26°درجة مئوية
الرطوبة 74%
ضغط 1017 hPa
الرؤية 10 كم أو أكثر
غيوم متفرقة على ارتفاع 4000 قدم

METAR: OEJN 171800Z 36012KT 9999 SCT040 26/21 Q1017 NOSIG

زمن: 21:57 (18:57 UTC)

توقعات

تاريخ ووقت الإصدار 1ساعة و 57 دقيقة قبل الساعة 17:00UTC
التوقعات صالحة من17 الساعة 18 UTC إلى 18 الساعة 24 UTC
ريح 4 عقدة من الشمال تتزايد حتى 14 عقدة
الرؤية 10 كم أو أكثر
غيوم قليلة على ارتفاع 4000 قدم
غيوم متفرقة على ارتفاع 10000 قدم
مؤقت
من 17 الساعة 18 UTC إلى 18 الساعة 06 UTC
الرؤية: 8000 متر
غيوم قليلة على ارتفاع 3000 قدم, مزنة ركامية.
غيوم متفرقة على ارتفاع 4000 قدم
عاصفة رعدية, مطر
أصبح
من 18 الساعة 06 UTC إلى 18 الساعة 08 UTC
ريح 12 عقدة من الشمال/الشمال الغربي

TAF: OEJN 171700Z 1718/1824 01004G14KT 9999 FEW040 SCT100 TEMPO 1718/1806 8000 TSRA FEW030CB SCT040 BECMG 1806/1808 33012KT

أرصاد الطقس والتوقعات من أكثر من 4000 مطار (تقارير الطقس للمطار METAR والتنبؤ بالطقس بالمطارTAF).

المحطات المتاحة هي النقط الصفراء والحمراء على الخريطة.

حرك المؤشر فوق النقطة لمعرفة اسم المحطة.

ثم انقر لمعرفة أرصاد وتوقعات الطقس.

لتغيير الخارطة: اضغط على الأزرار الخضراء مع رمز الصليب الأسود للتكبير. على الزر الأخضر مع شرطة للتصغير، أو على الأسهم الخضراء للخرائط المجاورة.


METAR-TAF: